LIPS

Details ICAO LIPS
Name Istrana
Region Italy
Timezone Europe/Rome (UTC+1.0)
Plans Departing 17
Arriving 8
Stats Elevation 137 ft / 42 m (AMSL)
Location 45.684441° 12.087231°
Runways 1
Magnetic Variation 3.130° E
Sunrise 2017-12-13 06:45:26 UTC / 2017-12-13 07:45:26 Local
Sunset 2017-12-13 15:29:04 UTC / 2017-12-13 16:29:04 Local
Advertisement - Login to hide

Runways

ID Width Length Bearing (true) Bearing (mag) Surface Threshold Offset Overrun Length
08 105 ft / 32 m 9,791 ft / 2,984 m 81.97° 78.84° Asphalt 956 ft / 291 m 0 ft / 0 m
26 105 ft / 32 m 9,791 ft / 2,984 m 262.00° 258.87° Asphalt 953 ft / 290 m 0 ft / 0 m

Map

Weather


0- 5 10 15 20 25 30 35+ Temperature / ° C

Clouds and Precipitation
Forecast for 2017-12-13 00:00 UTC. Updated 20 minutes ago

Ground ~20,000 ft ~40,000 ft Winds

METAR

LIPS 122255Z 00000KT 6000 NSC 05/03 Q1013 RMK OVC OVC170 VIS MIN 6000 WIND THR26 00000KT WIND THR08 00000KT WHT

TAF

Not found

Frequencies

Tower 122.10 MHz TWR
Approach 122.10 MHz TREVISO APP
Approach 120.40 MHz TREVISO APP
Approach 121.15 MHz TREVISO APP
Warning: Do not use this data for real-world aviation or navigation. No guarantee of current accuracy is given.